Time;durP1;ratioP1;P1;durP2;ratioP2;P2;SDS_P1;SDS_P2;PMS_P1;PMS_P2;Temp;Humidity;BMP_temperature;BMP_pressure;BME280_temperature;BME280_humidity;BME280_pressure;Samples;Min_cycle;Max_cycle;Signal;HPM_P1;HPM_P2
2022/04/02 00:03:06;;;;;;;3.87;2.40;;;;;2.20;100931.00;;;;10168760;29;20207;-79
2022/04/02 00:08:08;;;;;;;6.40;2.60;;;;;2.20;100921.00;;;;10138006;29;20236;-79
2022/04/02 00:13:10;;;;;;;6.67;2.60;;;;;2.20;100919.00;;;;10138762;29;20206;-78
2022/04/02 00:18:13;;;;;;;4.77;2.23;;;;;2.10;100924.00;;;;10136722;29;20285;-79
2022/04/02 00:28:37;;;;;;;4.73;2.60;;;;;2.10;100927.00;;;;10174766;29;20695;-79
2022/04/02 00:33:44;;;;;;;6.77;3.17;;;;;2.10;100928.00;;;;10174647;29;20240;-79
2022/04/02 00:38:46;;;;;;;4.70;2.60;;;;;2.10;100916.00;;;;10158009;29;20222;-79
2022/04/02 00:44:00;;;;;;;3.20;2.20;;;;;2.00;100913.00;;;;10175046;29;20289;-79
2022/04/02 00:49:04;;;;;;;6.93;3.53;;;;;2.10;100906.00;;;;10175254;29;20297;-79
2022/04/02 00:54:11;;;;;;;6.00;3.27;;;;;2.00;100917.00;;;;10190416;29;20221;-78
2022/04/02 00:59:14;;;;;;;6.03;2.50;;;;;2.00;100916.00;;;;10173185;29;20202;-79
2022/04/02 01:04:16;;;;;;;4.83;2.40;;;;;2.00;100904.00;;;;10189326;29;20610;-79
2022/04/02 01:09:19;;;;;;;6.77;2.53;;;;;2.00;100917.00;;;;10158953;29;20218;-78
2022/04/02 01:14:26;;;;;;;4.10;2.50;;;;;2.00;100919.00;;;;10174023;29;20217;-79
2022/04/02 01:19:33;;;;;;;6.10;3.13;;;;;2.00;100930.00;;;;10191223;29;20233;-78
2022/04/02 01:24:49;;;;;;;8.67;3.13;;;;;1.90;100920.00;;;;10147932;29;20266;-79
2022/04/02 01:29:52;;;;;;;4.17;2.77;;;;;1.80;100926.00;;;;10150807;29;20707;-79
2022/04/02 01:34:54;;;;;;;6.30;2.57;;;;;1.70;100928.00;;;;10190353;29;20254;-78
2022/04/02 01:39:56;;;;;;;4.77;2.90;;;;;1.70;100929.00;;;;10144005;29;20238;-80
2022/04/02 01:45:06;;;;;;;5.23;3.43;;;;;1.60;100930.00;;;;10152327;29;20195;-79
2022/04/02 01:50:20;;;;;;;8.13;3.27;;;;;1.50;100929.00;;;;10155046;29;20218;-78
2022/04/02 01:55:25;;;;;;;4.63;2.50;;;;;1.40;100927.00;;;;10148947;29;20210;-78
2022/04/02 02:00:34;;;;;;;5.17;2.60;;;;;1.40;100934.00;;;;10134454;29;20218;-79
2022/04/02 02:05:36;;;;;;;6.40;2.90;;;;;1.30;100931.00;;;;10149461;29;20199;-79
2022/04/02 02:10:39;;;;;;;7.20;2.90;;;;;1.30;100935.00;;;;10133696;29;20219;-79
2022/04/02 02:16:03;;;;;;;6.13;2.57;;;;;1.30;100923.00;;;;10163619;29;20207;-79
2022/04/02 02:21:08;;;;;;;5.73;2.93;;;;;1.20;100928.00;;;;10151693;29;20297;-80
2022/04/02 02:26:10;;;;;;;5.00;2.80;;;;;1.20;100937.00;;;;10148881;29;20209;-79
2022/04/02 02:31:12;;;;;;;7.30;2.73;;;;;1.20;100938.00;;;;10145204;29;20658;-79
2022/04/02 02:36:17;;;;;;;6.03;2.63;;;;;1.10;100942.00;;;;10187318;29;20273;-78
2022/04/02 02:41:31;;;;;;;4.83;2.80;;;;;1.00;100933.00;;;;10119093;29;20622;-80
2022/04/02 02:46:37;;;;;;;8.90;2.77;;;;;1.00;100933.00;;;;10163409;29;20279;-79
2022/04/02 02:51:55;;;;;;;6.10;2.50;;;;;0.90;100941.00;;;;10187998;29;20217;-79
2022/04/02 02:57:02;;;;;;;6.03;2.83;;;;;0.90;100946.00;;;;10172464;29;20225;-79
2022/04/02 03:02:04;;;;;;;6.07;2.77;;;;;0.80;100951.00;;;;10189326;29;20213;-79
2022/04/02 03:07:07;;;;;;;6.07;3.13;;;;;0.70;100958.00;;;;10189189;29;20233;-79
2022/04/02 03:12:14;;;;;;;6.57;3.40;;;;;0.70;100949.00;;;;10204632;29;20225;-79
2022/04/02 03:17:16;;;;;;;5.47;2.67;;;;;0.60;100949.00;;;;10189580;29;20195;-79
2022/04/02 03:22:20;;;;;;;4.13;2.83;;;;;0.60;100948.00;;;;10193634;29;20270;-80
2022/04/02 03:27:23;;;;;;;3.80;3.40;;;;;0.60;100953.00;;;;10143848;29;20266;-79
2022/04/02 03:32:27;;;;;;;4.33;2.90;;;;;0.60;100951.00;;;;10151941;29;20214;-79
2022/04/02 03:37:30;;;;;;;4.87;2.43;;;;;0.60;100951.00;;;;10127028;29;20223;-79
2022/04/02 03:42:32;;;;;;;6.90;2.60;;;;;0.50;100955.00;;;;10143348;29;20203;-80
2022/04/02 03:47:42;;;;;;;2.63;2.10;;;;;0.50;100964.00;;;;10159146;29;20730;-79
2022/04/02 03:52:45;;;;;;;9.03;2.90;;;;;0.50;100965.00;;;;10176554;29;20266;-79
2022/04/02 03:57:52;;;;;;;7.80;2.93;;;;;0.60;100966.00;;;;10182971;29;20198;-80
2022/04/02 04:02:57;;;;;;;5.23;2.43;;;;;0.60;100959.00;;;;10159475;29;20231;-80
2022/04/02 04:08:03;;;;;;;6.43;3.00;;;;;0.70;100970.00;;;;10159218;29;20206;-79
2022/04/02 04:13:07;;;;;;;6.20;3.00;;;;;0.70;100969.00;;;;10158977;29;20215;-80
2022/04/02 04:18:13;;;;;;;6.80;2.83;;;;;0.70;100980.00;;;;10158677;29;20199;-79
2022/04/02 04:23:17;;;;;;;3.37;2.70;;;;;0.70;100983.00;;;;10193787;29;20732;-80
2022/04/02 04:28:20;;;;;;;4.37;2.40;;;;;0.70;101008.00;;;;10252895;29;20652;-79
2022/04/02 04:33:23;;;;;;;5.20;2.27;;;;;0.70;101001.00;;;;10235576;29;20639;-80
2022/04/02 04:38:26;;;;;;;3.57;2.43;;;;;0.70;100996.00;;;;10218668;29;20221;-80
2022/04/02 04:43:34;;;;;;;4.47;2.30;;;;;0.70;101011.00;;;;10219201;29;20311;-80
2022/04/02 04:48:36;;;;;;;11.17;2.83;;;;;0.70;101016.00;;;;10229527;29;20270;-79
2022/04/02 04:53:40;;;;;;;4.20;2.50;;;;;0.60;101024.00;;;;10195545;29;20218;-79
2022/04/02 04:58:42;;;;;;;3.33;2.33;;;;;0.50;101031.00;;;;10195765;29;20202;-78
2022/04/02 05:03:46;;;;;;;4.00;2.40;;;;;0.40;101029.00;;;;10196003;29;20199;-80
2022/04/02 05:08:52;;;;;;;5.60;2.30;;;;;0.30;101029.00;;;;10179866;29;20199;-80
2022/04/02 05:13:58;;;;;;;5.10;2.60;;;;;0.30;101042.00;;;;10164099;29;20241;-80
2022/04/02 05:19:02;;;;;;;4.50;2.70;;;;;0.30;101050.00;;;;10206998;29;20202;-79
2022/04/02 05:24:08;;;;;;;3.27;2.10;;;;;0.30;101050.00;;;;10179973;29;20295;-79
2022/04/02 05:29:14;;;;;;;7.07;2.60;;;;;0.40;101067.00;;;;10195694;29;20673;-79
2022/04/02 05:34:16;;;;;;;4.27;2.70;;;;;0.40;101070.00;;;;10165535;29;20719;-80
2022/04/02 05:39:18;;;;;;;5.03;2.70;;;;;0.50;101072.00;;;;10154024;29;20233;-78
2022/04/02 05:44:24;;;;;;;4.63;2.20;;;;;0.60;101077.00;;;;10138238;29;20210;-80
2022/04/02 05:49:26;;;;;;;5.67;2.60;;;;;0.70;101082.00;;;;10167354;29;20214;-80
2022/04/02 05:54:28;;;;;;;3.73;2.23;;;;;0.80;101099.00;;;;10145836;29;20239;-79
2022/04/02 05:59:30;;;;;;;5.43;2.60;;;;;1.00;101106.00;;;;10137681;29;20202;-80
2022/04/02 06:04:32;;;;;;;3.77;2.50;;;;;1.30;101114.00;;;;10139771;29;20203;-81
2022/04/02 06:09:34;;;;;;;3.70;2.27;;;;;1.50;101119.00;;;;10136258;29;20211;-80
2022/04/02 06:14:36;;;;;;;3.03;2.47;;;;;1.70;101117.00;;;;10167049;29;20206;-80
2022/04/02 06:19:38;;;;;;;5.57;2.67;;;;;1.90;101113.00;;;;10152192;29;20662;-80
2022/04/02 06:24:40;;;;;;;6.33;2.70;;;;;2.10;101119.00;;;;10184024;29;20206;-80
2022/04/02 06:29:42;;;;;;;2.97;2.20;;;;;2.40;101125.00;;;;10208097;29;20206;-79
2022/04/02 06:34:44;;;;;;;4.47;2.40;;;;;2.60;101129.00;;;;10150580;29;20203;-80
2022/04/02 06:39:47;;;;;;;5.03;2.40;;;;;2.90;101134.00;;;;10114828;29;1158720;-81
2022/04/02 06:44:49;;;;;;;6.37;2.13;;;;;3.20;101139.00;;;;10166900;29;20203;-76
2022/04/02 06:49:51;;;;;;;2.77;1.97;;;;;3.40;101145.00;;;;10136266;29;20221;-80
2022/04/02 06:54:52;;;;;;;4.47;2.10;;;;;3.70;101155.00;;;;10194816;28;20210;-79
2022/04/02 06:59:55;;;;;;;3.20;1.83;;;;;4.00;101163.00;;;;10221502;29;20616;-79
2022/04/02 07:04:57;;;;;;;3.63;2.23;;;;;4.30;101173.00;;;;10170912;29;20206;-79
2022/04/02 07:09:59;;;;;;;3.67;2.10;;;;;4.60;101168.00;;;;10157026;29;20223;-80
2022/04/02 07:15:02;;;;;;;2.10;1.80;;;;;4.90;101171.00;;;;10143382;29;20199;-80
2022/04/02 07:20:06;;;;;;;2.40;1.93;;;;;5.40;101183.00;;;;10170694;29;20671;-80
2022/04/02 07:25:08;;;;;;;3.20;2.23;;;;;5.90;101184.00;;;;10177370;29;20205;-80
2022/04/02 07:30:11;;;;;;;3.50;1.83;;;;;6.20;101188.00;;;;10195610;29;20214;-80
2022/04/02 07:35:12;;;;;;;5.47;2.13;;;;;6.80;101187.00;;;;10196651;29;20206;-80
2022/04/02 07:40:24;;;;;;;4.90;2.20;;;;;7.00;101200.00;;;;10198409;29;20294;-80
2022/04/02 07:45:39;;;;;;;6.87;2.40;;;;;7.50;101200.00;;;;10200695;29;20669;-79
2022/04/02 07:50:44;;;;;;;3.57;2.30;;;;;7.90;101200.00;;;;10196157;29;20214;-79
2022/04/02 07:55:50;;;;;;;2.70;1.90;;;;;8.00;101208.00;;;;10197642;29;20258;-78
2022/04/02 08:00:55;;;;;;;3.20;1.90;;;;;8.10;101216.00;;;;10197219;29;20194;-77
2022/04/02 08:06:02;;;;;;;2.80;1.70;;;;;8.50;101221.00;;;;10196768;29;20198;-78
2022/04/02 08:11:04;;;;;;;3.63;2.10;;;;;8.40;101224.00;;;;10198465;29;20221;-79
2022/04/02 08:16:08;;;;;;;2.93;2.17;;;;;8.20;101225.00;;;;10180035;29;20261;-77
2022/04/02 08:21:10;;;;;;;2.07;1.50;;;;;8.00;101227.00;;;;10185260;29;20262;-78
2022/04/02 08:26:44;;;;;;;1.80;1.60;;;;;8.10;101236.00;;;;10222225;29;20565;-78
2022/04/02 08:32:04;;;;;;;3.13;2.10;;;;;8.20;101240.00;;;;10144718;29;20249;-79
2022/04/02 08:37:15;;;;;;;1.90;1.80;;;;;8.60;101243.00;;;;10140354;29;20227;-77
2022/04/02 08:42:53;;;;;;;5.23;2.13;;;;;8.40;101258.00;;;;10159896;29;20183;-79
2022/04/02 08:48:04;;;;;;;4.63;2.20;;;;;8.70;101243.00;;;;10109828;29;20700;-81
2022/04/02 08:53:17;;;;;;;4.77;1.97;;;;;8.80;101256.00;;;;10176481;29;20580;-78
2022/04/02 08:59:05;;;;;;;3.53;2.17;;;;;8.70;101260.00;;;;10192473;29;20190;-78
2022/04/02 09:04:26;;;;;;;2.97;2.17;;;;;9.40;101267.00;;;;10163033;29;20218;-78
2022/04/02 09:10:11;;;;;;;4.73;2.00;;;;;9.70;101286.00;;;;10194845;29;20194;-78
2022/04/02 09:15:24;;;;;;;3.23;1.93;;;;;9.20;101274.00;;;;10191220;29;20197;-78
2022/04/02 09:20:51;;;;;;;2.43;2.23;;;;;9.90;101281.00;;;;10206888;29;20194;-81
2022/04/02 09:26:17;;;;;;;4.13;2.23;;;;;9.30;101298.00;;;;10155215;29;20194;-78
2022/04/02 09:31:57;;;;;;;3.37;2.20;;;;;8.40;101294.00;;;;10183218;29;20676;-80
2022/04/02 09:37:37;;;;;;;5.83;2.73;;;;;8.30;101309.00;;;;10208508;29;20337;-78
2022/04/02 09:42:41;;;;;;;2.97;2.43;;;;;9.10;101302.00;;;;10149222;29;20207;-79
2022/04/02 09:48:23;;;;;;;3.57;2.60;;;;;9.60;101294.00;;;;10142847;29;20205;-79
2022/04/02 09:53:32;;;;;;;3.70;3.03;;;;;9.30;101304.00;;;;10179785;29;20274;-79
2022/04/02 09:58:59;;;;;;;4.37;2.50;;;;;9.10;101312.00;;;;10209819;29;20187;-79
2022/04/02 10:04:17;;;;;;;4.20;2.40;;;;;8.60;101295.00;;;;10172193;29;20266;-79
2022/04/02 10:09:20;;;;;;;3.83;2.60;;;;;8.60;101309.00;;;;10168568;29;20198;-79
2022/04/02 10:14:23;;;;;;;4.13;2.63;;;;;8.00;101311.00;;;;10139052;29;20215;-79
2022/04/02 10:19:34;;;;;;;4.20;2.93;;;;;7.70;101315.00;;;;10153388;29;20203;-79
2022/04/02 10:24:53;;;;;;;4.40;3.17;;;;;7.50;101312.00;;;;10215363;29;20204;-79
2022/04/02 10:29:58;;;;;;;5.30;3.10;;;;;7.70;101316.00;;;;10198589;29;20201;-79
2022/04/02 10:35:08;;;;;;;9.20;3.97;;;;;8.30;101311.00;;;;10150507;29;20271;-78
2022/04/02 10:40:24;;;;;;;6.67;3.23;;;;;8.40;101306.00;;;;10167800;29;20210;-78
2022/04/02 10:45:28;;;;;;;5.27;2.80;;;;;9.40;101295.00;;;;10151289;29;20700;-78
2022/04/02 10:50:32;;;;;;;5.97;2.73;;;;;9.50;101302.00;;;;10156514;29;20312;-79
2022/04/02 10:55:48;;;;;;;3.67;2.87;;;;;9.00;101299.00;;;;10150510;29;20206;-79
2022/04/02 11:00:54;;;;;;;4.40;3.13;;;;;11.00;101287.00;;;;10151113;29;20194;-78
2022/04/02 11:05:58;;;;;;;7.50;3.07;;;;;12.40;101274.00;;;;10133850;29;20220;-79
2022/04/02 11:11:16;;;;;;;3.70;2.97;;;;;13.40;101282.00;;;;10151451;29;20211;-79
2022/04/02 11:16:23;;;;;;;3.17;2.50;;;;;11.70;101292.00;;;;10150266;29;20201;-78
2022/04/02 11:21:32;;;;;;;4.30;2.90;;;;;11.00;101285.00;;;;10155388;29;20210;-78
2022/04/02 11:26:36;;;;;;;5.17;2.43;;;;;9.80;101302.00;;;;10188563;29;20202;-79
2022/04/02 11:31:44;;;;;;;4.90;2.70;;;;;8.60;101303.00;;;;10173949;29;20215;-78
2022/04/02 11:36:47;;;;;;;4.33;2.23;;;;;8.50;101299.00;;;;10131098;29;20238;-78
2022/04/02 11:41:55;;;;;;;4.20;2.40;;;;;10.90;101289.00;;;;10140363;29;20195;-78
2022/04/02 11:47:05;;;;;;;3.63;3.00;;;;;10.80;101296.00;;;;10161632;29;20231;-79
2022/04/02 11:52:12;;;;;;;3.77;2.87;;;;;9.10;101312.00;;;;10190483;29;20219;-79
2022/04/02 11:57:15;;;;;;;6.73;3.43;;;;;8.40;101311.00;;;;10194221;29;20665;-78
2022/04/02 12:02:34;;;;;;;3.63;2.93;;;;;8.30;101314.00;;;;10194201;29;20190;-78
2022/04/02 12:07:43;;;;;;;7.60;3.50;;;;;10.40;101302.00;;;;10195392;29;20558;-78
2022/04/02 12:13:08;;;;;;;4.13;3.27;;;;;9.90;101308.00;;;;10197296;29;20690;-78
2022/04/02 12:18:09;;;;;;;4.80;3.03;;;;;8.70;101308.00;;;;10181094;29;20227;-79
2022/04/02 12:23:14;;;;;;;6.10;3.80;;;;;7.80;101311.00;;;;10182281;29;20195;-79
2022/04/02 12:28:18;;;;;;;6.17;3.83;;;;;8.00;101321.00;;;;10198073;29;20198;-78
2022/04/02 12:33:22;;;;;;;4.90;3.30;;;;;8.40;101314.00;;;;10173843;29;20222;-79
2022/04/02 12:38:30;;;;;;;4.03;3.23;;;;;9.00;101319.00;;;;10153455;29;20230;-78
2022/04/02 12:43:37;;;;;;;7.53;3.63;;;;;8.90;101324.00;;;;10181349;29;20205;-78
2022/04/02 12:48:43;;;;;;;3.63;2.57;;;;;7.90;101333.00;;;;10194336;29;20232;-78
2022/04/02 12:54:01;;;;;;;7.90;3.30;;;;;7.40;101339.00;;;;10161441;29;20274;-79
2022/04/02 12:59:17;;;;;;;5.33;3.23;;;;;7.30;101328.00;;;;10140498;29;20206;-79
2022/04/02 13:04:25;;;;;;;4.20;2.73;;;;;7.70;101336.00;;;;10156754;29;20194;-78
2022/04/02 13:09:35;;;;;;;5.13;3.10;;;;;8.10;101326.00;;;;10124775;29;20191;-79
2022/04/02 13:14:38;;;;;;;4.93;3.40;;;;;9.40;101317.00;;;;10187107;29;20217;-79
2022/04/02 13:25:22;;;;;;;3.30;3.00;;;;;11.10;101313.00;;;;10226452;29;20231;-78
2022/04/02 13:30:33;;;;;;;5.13;3.53;;;;;8.80;101329.00;;;;10157192;29;20543;-78
2022/04/02 13:35:39;;;;;;;6.00;3.30;;;;;7.70;101330.00;;;;10137573;29;20227;-78
2022/04/02 13:40:45;;;;;;;4.87;2.90;;;;;7.90;101325.00;;;;10125260;29;20263;-78
2022/04/02 13:45:51;;;;;;;4.43;2.60;;;;;8.10;101323.00;;;;10155442;29;20203;-79
2022/04/02 13:51:10;;;;;;;3.80;2.97;;;;;8.20;101323.00;;;;10180313;29;20214;-78
2022/04/02 13:56:14;;;;;;;3.67;2.80;;;;;12.40;101311.00;;;;10210213;29;20190;-79
2022/04/02 14:01:21;;;;;;;6.27;4.10;;;;;13.10;101318.00;;;;10132376;29;20674;-79
2022/04/02 14:06:25;;;;;;;3.87;2.80;;;;;11.00;101324.00;;;;10137899;29;20183;-80
2022/04/02 14:11:35;;;;;;;2.97;2.73;;;;;9.00;101335.00;;;;10137632;29;20223;-78
2022/04/02 14:16:39;;;;;;;3.93;2.63;;;;;7.60;101339.00;;;;10168060;29;20207;-79
2022/04/02 14:21:51;;;;;;;3.93;3.20;;;;;6.70;101351.00;;;;10144573;29;20213;-79
2022/04/02 14:27:12;;;;;;;4.53;3.17;;;;;6.20;101344.00;;;;10187375;29;20195;-79
2022/04/02 14:32:33;;;;;;;5.37;3.10;;;;;6.20;101345.00;;;;10166571;29;20221;-79
2022/04/02 14:37:56;;;;;;;5.17;3.03;;;;;6.40;101337.00;;;;10161051;29;20592;-79
2022/04/02 14:42:58;;;;;;;4.33;2.53;;;;;6.90;101335.00;;;;10177099;29;20198;-79
2022/04/02 14:48:28;;;;;;;3.73;2.80;;;;;7.70;101348.00;;;;10217835;29;20284;-79
2022/04/02 14:53:56;;;;;;;5.53;2.60;;;;;8.20;101345.00;;;;10168896;29;20242;-79
2022/04/02 14:59:10;;;;;;;4.37;2.80;;;;;8.70;101336.00;;;;10134853;29;20222;-78
2022/04/02 15:04:49;;;;;;;5.00;2.60;;;;;9.40;101341.00;;;;10154327;29;20658;-79
2022/04/02 15:10:37;;;;;;;5.23;2.97;;;;;9.00;101350.00;;;;10152799;29;20191;-79
2022/04/02 15:15:43;;;;;;;4.30;2.87;;;;;10.30;101339.00;;;;10128306;29;20195;-79
2022/04/02 15:21:08;;;;;;;4.57;3.10;;;;;9.00;101350.00;;;;10183663;29;20212;-79
2022/04/02 15:26:16;;;;;;;3.70;2.50;;;;;7.80;101357.00;;;;10196494;29;20217;-79
2022/04/02 15:32:00;;;;;;;5.30;2.70;;;;;7.00;101361.00;;;;10179133;29;20673;-79
2022/04/02 15:37:07;;;;;;;3.23;2.33;;;;;6.80;101365.00;;;;10197008;29;20226;-79
2022/04/02 15:42:18;;;;;;;5.63;2.43;;;;;7.00;101368.00;;;;10183305;29;20196;-79
2022/04/02 15:47:45;;;;;;;3.50;2.40;;;;;7.20;101384.00;;;;10180226;29;20250;-79
2022/04/02 15:53:10;;;;;;;4.37;2.60;;;;;7.50;101376.00;;;;10175264;29;20222;-78
2022/04/02 15:58:12;;;;;;;3.83;2.20;;;;;7.60;101376.00;;;;10168688;29;20190;-78
2022/04/02 16:03:45;;;;;;;4.27;2.63;;;;;7.60;101378.00;;;;10164275;29;20209;-79
2022/04/02 16:08:54;;;;;;;7.87;2.70;;;;;8.00;101374.00;;;;10135707;29;20214;-79
2022/04/02 16:14:22;;;;;;;7.60;2.60;;;;;8.60;101378.00;;;;10144034;29;20251;-79
2022/04/02 16:19:40;;;;;;;6.50;2.70;;;;;7.90;101386.00;;;;10158586;29;20213;-78
2022/04/02 16:24:43;;;;;;;5.43;2.33;;;;;7.00;101397.00;;;;10190070;29;20217;-79
2022/04/02 16:29:46;;;;;;;3.27;2.50;;;;;6.50;101392.00;;;;10180318;29;20344;-78
2022/04/02 16:34:49;;;;;;;5.00;2.27;;;;;6.20;101399.00;;;;10181396;29;20229;-79
2022/04/02 16:39:52;;;;;;;3.20;2.50;;;;;6.00;101411.00;;;;10178033;29;20324;-79
2022/04/02 16:45:00;;;;;;;5.03;3.00;;;;;5.80;101424.00;;;;10194455;29;20653;-79
2022/04/02 16:50:05;;;;;;;4.77;3.20;;;;;5.60;101432.00;;;;10194795;29;20783;-79
2022/04/02 16:55:13;;;;;;;4.20;2.90;;;;;5.50;101429.00;;;;10230447;29;20221;-78
2022/04/02 17:00:18;;;;;;;7.03;3.83;;;;;5.60;101436.00;;;;10215106;29;20194;-79
2022/04/02 17:05:25;;;;;;;5.00;2.90;;;;;5.70;101436.00;;;;10147950;29;20285;-79
2022/04/02 17:10:29;;;;;;;3.57;2.80;;;;;5.80;101435.00;;;;10179241;29;20557;-79
2022/04/02 17:15:32;;;;;;;3.37;2.70;;;;;5.90;101438.00;;;;10179985;29;20717;-79
2022/04/02 17:20:35;;;;;;;4.00;2.40;;;;;5.90;101443.00;;;;10180029;29;20649;-78
2022/04/02 17:25:39;;;;;;;3.73;2.60;;;;;5.90;101444.00;;;;10180113;29;20194;-78
2022/04/02 17:30:43;;;;;;;3.80;2.00;;;;;5.90;101453.00;;;;10195135;29;20198;-79
2022/04/02 17:35:53;;;;;;;4.77;2.50;;;;;5.90;101458.00;;;;10192004;29;20226;-78
2022/04/02 17:41:12;;;;;;;4.47;1.90;;;;;5.90;101464.00;;;;10208157;29;20198;-78
2022/04/02 17:46:26;;;;;;;4.80;2.30;;;;;5.80;101465.00;;;;10182215;29;20204;-79
2022/04/02 17:51:31;;;;;;;5.93;3.50;;;;;5.60;101473.00;;;;10177266;29;20210;-78
2022/04/02 17:56:34;;;;;;;4.47;2.23;;;;;5.30;101478.00;;;;10193705;29;20258;-78
2022/04/02 18:01:38;;;;;;;3.27;2.20;;;;;5.20;101481.00;;;;10191097;29;20606;-77
2022/04/02 18:06:45;;;;;;;4.67;3.07;;;;;4.90;101494.00;;;;10190312;29;20301;-78
2022/04/02 18:11:47;;;;;;;6.57;4.10;;;;;4.90;101494.00;;;;10179763;29;20266;-79
2022/04/02 18:16:49;;;;;;;6.43;3.03;;;;;4.80;101506.00;;;;10208876;29;20607;-79
2022/04/02 18:21:51;;;;;;;8.60;5.80;;;;;4.70;101514.00;;;;10192402;29;20202;-80
2022/04/02 18:26:54;;;;;;;6.37;4.27;;;;;4.60;101519.00;;;;10178100;29;20194;-80
2022/04/02 18:31:57;;;;;;;7.30;4.27;;;;;4.60;101516.00;;;;10161901;29;20222;-81
2022/04/02 18:36:59;;;;;;;6.90;4.27;;;;;4.50;101523.00;;;;10139039;29;20325;-79
2022/04/02 18:42:01;;;;;;;6.80;4.40;;;;;4.50;101539.00;;;;10136886;29;20199;-80
2022/04/02 18:47:03;;;;;;;4.70;3.20;;;;;4.40;101537.00;;;;10139008;29;20282;-80
2022/04/02 18:52:05;;;;;;;5.30;3.57;;;;;4.30;101544.00;;;;10184562;29;20209;-79
2022/04/02 18:57:07;;;;;;;4.43;3.10;;;;;4.20;101547.00;;;;10241489;29;20198;-80
2022/04/02 19:02:09;;;;;;;6.10;4.07;;;;;4.10;101564.00;;;;10223492;29;20203;-80
2022/04/02 19:07:12;;;;;;;5.50;2.70;;;;;4.00;101569.00;;;;10170687;29;20198;-80
2022/04/02 19:12:14;;;;;;;7.70;3.47;;;;;4.00;101575.00;;;;10183676;29;20216;-80
2022/04/02 19:17:16;;;;;;;4.37;2.90;;;;;3.90;101578.00;;;;10200239;29;20234;-79
2022/04/02 19:22:18;;;;;;;5.37;3.40;;;;;3.80;101590.00;;;;10183313;29;20212;-80
2022/04/02 19:27:20;;;;;;;7.17;3.87;;;;;3.80;101599.00;;;;10187570;29;20202;-79
2022/04/02 19:32:22;;;;;;;6.40;3.20;;;;;3.80;101603.00;;;;10180303;29;20210;-80
2022/04/02 19:37:24;;;;;;;2.70;2.20;;;;;3.80;101608.00;;;;10151782;29;20234;-80
2022/04/02 19:42:26;;;;;;;5.97;2.70;;;;;3.80;101609.00;;;;10159141;29;20672;-79
2022/04/02 19:47:28;;;;;;;5.70;3.37;;;;;3.70;101609.00;;;;10175313;29;20207;-78
2022/04/02 19:52:30;;;;;;;7.43;3.60;;;;;3.70;101617.00;;;;10197326;29;20745;-79
2022/04/02 19:57:34;;;;;;;5.03;3.03;;;;;3.70;101620.00;;;;10198985;29;20198;-79
2022/04/02 20:02:36;;;;;;;6.27;3.77;;;;;3.60;101626.00;;;;10199551;29;20194;-79
2022/04/02 20:07:38;;;;;;;6.07;3.27;;;;;3.50;101634.00;;;;10182025;29;20202;-79
2022/04/02 20:12:40;;;;;;;6.47;3.37;;;;;3.50;101629.00;;;;10214095;29;20266;-79
2022/04/02 20:17:42;;;;;;;4.63;3.10;;;;;3.40;101633.00;;;;10196147;29;20194;-79
2022/04/02 20:22:44;;;;;;;5.97;2.70;;;;;3.30;101632.00;;;;10181926;29;20210;-79
2022/04/02 20:27:46;;;;;;;5.40;3.73;;;;;3.20;101644.00;;;;10166227;29;20199;-79
2022/04/02 20:32:48;;;;;;;5.97;3.10;;;;;3.10;101643.00;;;;10180782;29;20277;-80
2022/04/02 20:37:50;;;;;;;6.53;3.97;;;;;3.00;101652.00;;;;10157585;29;20222;-79
2022/04/02 20:42:52;;;;;;;5.40;2.97;;;;;2.90;101649.00;;;;10142148;29;20275;-79
2022/04/02 20:47:54;;;;;;;4.17;2.93;;;;;2.70;101651.00;;;;10177876;29;20201;-79
2022/04/02 20:52:57;;;;;;;6.27;3.70;;;;;2.60;101659.00;;;;10194463;29;20819;-79
2022/04/02 20:57:58;;;;;;;6.33;3.47;;;;;2.40;101666.00;;;;10176375;29;20247;-80
2022/04/02 21:03:02;;;;;;;5.23;3.33;;;;;2.30;101660.00;;;;10181726;29;20205;-80
2022/04/02 21:08:04;;;;;;;5.57;3.83;;;;;2.30;101661.00;;;;10154324;29;20207;-79
2022/04/02 21:13:07;;;;;;;5.27;3.63;;;;;2.20;101664.00;;;;10172055;29;20203;-78
2022/04/02 21:18:10;;;;;;;6.90;3.77;;;;;2.20;101664.00;;;;10157294;29;20258;-79
2022/04/02 21:23:12;;;;;;;6.07;3.17;;;;;2.20;101667.00;;;;10160986;29;20205;-79
2022/04/02 21:28:14;;;;;;;5.87;3.10;;;;;2.20;101674.00;;;;10195761;29;20206;-79
2022/04/02 21:33:17;;;;;;;5.70;3.97;;;;;2.20;101678.00;;;;10193927;29;20218;-78
2022/04/02 21:38:19;;;;;;;7.63;3.40;;;;;2.10;101674.00;;;;10194917;29;20229;-79
2022/04/02 21:43:21;;;;;;;5.97;3.30;;;;;2.00;101685.00;;;;10196151;29;20673;-78
2022/04/02 21:48:23;;;;;;;6.03;3.77;;;;;1.90;101685.00;;;;10196743;29;20721;-80
2022/04/02 21:53:25;;;;;;;8.67;3.90;;;;;1.70;101690.00;;;;10219986;29;20213;-79
2022/04/02 21:58:27;;;;;;;5.93;3.20;;;;;1.70;101692.00;;;;10169509;29;20206;-79
2022/04/02 22:03:29;;;;;;;4.37;3.23;;;;;1.60;101694.00;;;;10178176;29;20202;-80
2022/04/02 22:08:30;;;;;;;5.10;2.77;;;;;1.60;101701.00;;;;10193139;29;20202;-79
2022/04/02 22:13:32;;;;;;;4.90;2.87;;;;;1.50;101702.00;;;;10193187;29;20222;-79
2022/04/02 22:18:34;;;;;;;5.47;3.03;;;;;1.40;101708.00;;;;10162459;29;20194;-79
2022/04/02 22:23:40;;;;;;;5.23;3.00;;;;;1.40;101708.00;;;;10202067;29;20198;-78
2022/04/02 22:28:42;;;;;;;4.67;2.90;;;;;1.30;101721.00;;;;10230937;29;20218;-79
2022/04/02 22:33:43;;;;;;;3.33;2.30;;;;;1.20;101724.00;;;;10232390;29;20201;-79
2022/04/02 22:38:45;;;;;;;2.77;2.43;;;;;1.20;101728.00;;;;10231570;29;20699;-79
2022/04/02 22:43:47;;;;;;;2.87;1.90;;;;;1.10;101731.00;;;;10247034;29;20193;-79
2022/04/02 22:48:50;;;;;;;5.57;2.13;;;;;1.10;101727.00;;;;10220977;29;20230;-78
2022/04/02 22:53:52;;;;;;;4.10;2.37;;;;;1.00;101729.00;;;;10190651;29;20721;-79
2022/04/02 22:58:54;;;;;;;4.73;2.53;;;;;1.00;101738.00;;;;10192621;29;20202;-79
2022/04/02 23:03:56;;;;;;;4.43;2.87;;;;;1.00;101742.00;;;;10207609;29;20194;-79
2022/04/02 23:08:58;;;;;;;5.37;2.53;;;;;0.90;101748.00;;;;10176955;29;20232;-79
2022/04/02 23:14:01;;;;;;;4.90;2.03;;;;;0.90;101749.00;;;;10192004;29;20221;-79
2022/04/02 23:19:04;;;;;;;3.93;2.03;;;;;0.80;101749.00;;;;10193639;29;20205;-78
2022/04/02 23:24:06;;;;;;;5.63;2.13;;;;;0.80;101752.00;;;;10192428;29;20226;-78
2022/04/02 23:29:09;;;;;;;4.40;2.20;;;;;0.70;101749.00;;;;10175379;29;20343;-78
2022/04/02 23:34:11;;;;;;;3.73;1.83;;;;;0.50;101745.00;;;;10154428;29;20310;-78
2022/04/02 23:39:15;;;;;;;3.87;2.20;;;;;0.40;101735.00;;;;10128159;29;20226;-78
2022/04/02 23:44:17;;;;;;;3.43;1.87;;;;;0.30;101747.00;;;;10168458;29;20234;-79
2022/04/02 23:49:20;;;;;;;10.03;3.50;;;;;0.30;101746.00;;;;10194297;29;20191;-79
2022/04/02 23:54:22;;;;;;;2.80;1.90;;;;;0.20;101758.00;;;;10196221;29;20215;-78
2022/04/02 23:59:23;;;;;;;3.50;2.10;;;;;0.20;101753.00;;;;10213924;29;20206;-79
